Time;durP1;ratioP1;P1;durP2;ratioP2;P2;SDS_P1;SDS_P2;PMS_P1;PMS_P2;Temp;Humidity;BMP_temperature;BMP_pressure;BME280_temperature;BME280_humidity;BME280_pressure;Samples;Min_cycle;Max_cycle;Signal;HPM_P1;HPM_P2
2023/09/27 00:02:24;0.00;0.00;0.62;0.00;0.00;0.62;6.60;3.93;;;24.50;36.40;;;;;;2272551;61;20425;-62
2023/09/27 00:05:10;0.00;0.00;0.62;0.00;0.00;0.62;4.63;3.50;;;24.50;36.40;;;;;;2273239;61;20996;-63
2023/09/27 00:07:56;0.00;0.00;0.62;0.00;0.00;0.62;3.50;3.20;;;24.50;36.50;;;;;;2272766;61;20388;-62
2023/09/27 00:10:41;0.00;0.00;0.62;0.00;0.00;0.62;3.57;3.27;;;24.40;36.50;;;;;;2273164;61;20505;-62
2023/09/27 00:13:26;0.00;0.00;0.62;0.00;0.00;0.62;4.10;3.40;;;24.40;36.60;;;;;;2273152;61;20832;-62
2023/09/27 00:16:10;0.00;0.00;0.62;0.00;0.00;0.62;3.90;3.33;;;24.30;36.60;;;;;;2273229;61;20436;-64
2023/09/27 00:18:56;0.00;0.00;0.62;0.00;0.00;0.62;4.10;3.70;;;24.30;36.70;;;;;;2272507;61;20361;-63
2023/09/27 00:21:41;0.00;0.00;0.62;0.00;0.00;0.62;3.47;3.17;;;24.20;36.70;;;;;;2273249;61;20930;-63
2023/09/27 00:24:26;0.00;0.00;0.62;0.00;0.00;0.62;3.73;3.43;;;24.20;36.80;;;;;;2272757;61;20394;-63
2023/09/27 00:27:11;0.00;0.00;0.62;0.00;0.00;0.62;5.13;3.83;;;24.10;36.80;;;;;;2273278;61;20358;-62
2023/09/27 00:29:55;0.00;0.00;0.62;0.00;0.00;0.62;3.80;3.50;;;24.10;36.90;;;;;;2272250;61;20408;-63
2023/09/27 00:32:40;0.00;0.00;0.62;0.00;0.00;0.62;4.07;3.40;;;24.10;37.00;;;;;;2272663;61;20439;-63
2023/09/27 00:35:26;0.00;0.00;0.62;0.00;0.00;0.62;3.73;2.97;;;24.00;37.00;;;;;;2272884;61;20386;-64
2023/09/27 00:38:11;0.00;0.00;0.62;0.00;0.00;0.62;4.50;3.10;;;24.00;37.10;;;;;;2272699;61;20399;-63
2023/09/27 00:40:55;0.00;0.00;0.62;0.00;0.00;0.62;4.40;3.67;;;24.00;37.10;;;;;;2272930;61;20374;-68
2023/09/27 00:43:40;0.00;0.00;0.62;0.00;0.00;0.62;3.43;3.13;;;24.00;37.30;;;;;;2272871;61;20836;-63
2023/09/27 00:46:24;0.00;0.00;0.62;0.00;0.00;0.62;3.40;3.10;;;24.00;37.20;;;;;;2272504;61;20408;-62
2023/09/27 00:49:10;0.00;0.00;0.62;0.00;0.00;0.62;3.73;2.90;;;23.90;37.80;;;;;;2271759;61;20374;-62
2023/09/27 00:51:57;0.00;0.00;0.62;0.00;0.00;0.62;3.47;3.07;;;24.00;37.20;;;;;;2272853;61;20357;-62
2023/09/27 00:54:42;0.00;0.00;0.62;0.00;0.00;0.62;3.50;3.20;;;23.90;37.10;;;;;;2274073;60;20365;-62
2023/09/27 00:57:26;0.00;0.00;0.62;0.00;0.00;0.62;3.80;3.07;;;23.90;37.10;;;;;;2277018;60;20885;-63
2023/09/27 01:00:14;0.00;0.00;0.62;0.00;0.00;0.62;3.40;3.10;;;23.90;37.10;;;;;;2276236;60;20401;-63
2023/09/27 01:02:59;0.00;0.00;0.62;0.00;0.00;0.62;3.20;2.90;;;23.90;37.10;;;;;;2276279;60;20424;-61
2023/09/27 01:05:45;0.00;0.00;0.62;0.00;0.00;0.62;3.80;3.20;;;23.90;37.10;;;;;;2276992;60;20380;-62
2023/09/27 01:08:32;0.00;0.00;0.62;0.00;0.00;0.62;3.33;3.03;;;23.80;37.10;;;;;;2276500;60;20377;-62
2023/09/27 01:11:17;0.00;0.00;0.62;0.00;0.00;0.62;3.70;3.30;;;23.80;37.20;;;;;;2276753;60;20798;-65
2023/09/27 01:14:03;0.00;0.00;0.62;0.00;0.00;0.62;3.80;3.10;;;23.80;37.30;;;;;;2277394;60;20415;-63
2023/09/27 01:16:47;0.00;0.00;0.62;0.00;0.00;0.62;3.67;3.30;;;23.70;37.30;;;;;;2276502;60;20393;-63
2023/09/27 01:19:33;0.00;0.00;0.62;0.00;0.00;0.62;3.83;3.43;;;23.70;37.30;;;;;;2276811;60;20757;-62
2023/09/27 01:22:18;0.00;0.00;0.62;0.00;0.00;0.62;3.70;3.27;;;23.70;37.40;;;;;;2276834;60;20361;-63
2023/09/27 01:25:08;0.00;0.00;0.62;0.00;0.00;0.62;3.93;2.97;;;23.70;37.40;;;;;;2277062;60;20487;-61
2023/09/27 01:27:52;0.00;0.00;0.62;0.00;0.00;0.62;3.23;2.80;;;23.60;37.50;;;;;;2276640;60;20369;-63
2023/09/27 01:30:38;0.00;0.00;0.62;0.00;0.00;0.62;3.40;3.10;;;23.60;37.50;;;;;;2276587;60;20422;-59
2023/09/27 01:33:23;0.00;0.00;0.62;0.00;0.00;0.62;3.80;3.30;;;23.60;37.60;;;;;;2276933;60;20387;-58
2023/09/27 01:36:08;0.00;0.00;0.62;0.00;0.00;0.62;3.57;2.80;;;23.50;37.50;;;;;;2273488;60;20397;-60
2023/09/27 01:38:52;0.00;0.00;0.62;0.00;0.00;0.62;3.60;2.87;;;23.50;37.70;;;;;;2271982;61;20386;-61
2023/09/27 01:41:38;0.00;0.00;0.62;0.00;0.00;0.62;4.00;3.00;;;23.50;37.70;;;;;;2272299;61;20416;-61
2023/09/27 01:44:23;0.00;0.00;0.62;0.00;0.00;0.62;3.53;3.20;;;23.50;37.70;;;;;;2273577;60;20374;-61
2023/09/27 01:47:07;0.00;0.00;0.62;0.00;0.00;0.62;4.00;3.60;;;23.40;37.70;;;;;;2270944;57;20956;-58
2023/09/27 01:49:52;0.00;0.00;0.62;0.00;0.00;0.62;3.40;3.00;;;23.40;37.80;;;;;;2273465;60;20448;-62
2023/09/27 01:52:37;0.00;0.00;0.62;0.00;0.00;0.62;5.03;2.90;;;23.40;37.80;;;;;;2273683;60;20369;-62
2023/09/27 01:55:22;0.00;0.00;0.62;0.00;0.00;0.62;3.23;2.93;;;23.40;37.90;;;;;;2273431;61;20374;-61
2023/09/27 01:58:08;0.00;0.00;0.62;0.00;0.00;0.62;4.20;3.60;;;23.30;37.80;;;;;;2272868;61;20882;-62
2023/09/27 02:00:53;0.00;0.00;0.62;0.00;0.00;0.62;4.50;3.47;;;23.30;37.90;;;;;;2273113;61;20390;-60
2023/09/27 02:03:40;0.00;0.00;0.62;0.00;0.00;0.62;3.70;3.00;;;23.30;38.00;;;;;;2273000;61;20774;-61
2023/09/27 02:06:24;0.00;0.00;0.62;0.00;0.00;0.62;4.03;3.10;;;23.30;38.20;;;;;;2273724;61;20359;-60
2023/09/27 02:09:09;0.00;0.00;0.62;0.00;0.00;0.62;3.30;3.00;;;23.20;38.10;;;;;;2273034;61;20408;-61
2023/09/27 02:11:53;0.00;0.00;0.62;0.00;0.00;0.62;3.23;2.93;;;23.30;38.30;;;;;;2273569;61;20774;-61
2023/09/27 02:14:40;0.00;0.00;0.62;0.00;0.00;0.62;3.30;3.00;;;23.20;38.20;;;;;;2273502;61;20365;-62
2023/09/27 02:17:25;0.00;0.00;0.62;0.00;0.00;0.62;5.40;3.63;;;23.20;38.20;;;;;;2272916;61;20398;-62
2023/09/27 02:20:13;0.00;0.00;0.62;0.00;0.00;0.62;3.90;3.60;;;23.20;38.20;;;;;;2272837;61;20428;-61
2023/09/27 02:22:58;0.00;0.00;0.62;0.00;0.00;0.62;3.60;3.23;;;23.20;38.20;;;;;;2273308;61;20882;-62
2023/09/27 02:25:43;0.00;0.00;0.62;0.00;0.00;0.62;6.67;4.07;;;23.10;38.20;;;;;;2273291;61;20416;-63
2023/09/27 02:28:27;0.00;0.00;0.62;0.00;0.00;0.62;3.90;3.50;;;23.10;38.20;;;;;;2273236;61;20405;-61
2023/09/27 02:31:13;0.00;0.00;0.62;0.00;0.00;0.62;3.73;3.40;;;23.10;38.20;;;;;;2273250;61;20385;-58
2023/09/27 02:33:58;0.00;0.00;0.62;0.00;0.00;0.62;3.50;3.20;;;23.10;38.20;;;;;;2273651;61;20392;-62
2023/09/27 02:36:42;0.00;0.00;0.62;0.00;0.00;0.62;4.03;3.10;;;23.10;38.20;;;;;;2273228;61;20433;-60
2023/09/27 02:39:30;0.00;0.00;0.62;0.00;0.00;0.62;3.80;3.30;;;23.00;38.10;;;;;;2273117;61;20362;-61
2023/09/27 02:42:15;0.00;0.00;0.62;0.00;0.00;0.62;3.17;2.87;;;23.00;38.10;;;;;;2273537;61;20393;-61
2023/09/27 02:44:59;0.00;0.00;0.62;0.00;0.00;0.62;4.07;3.57;;;23.00;38.20;;;;;;2273157;61;20895;-58
2023/09/27 02:47:46;0.00;0.00;0.62;0.00;0.00;0.62;3.60;3.30;;;23.00;38.30;;;;;;2273678;61;20363;-55
2023/09/27 02:50:31;0.00;0.00;0.62;0.00;0.00;0.62;4.77;3.63;;;23.00;38.30;;;;;;2273523;61;20398;-58
2023/09/27 02:53:16;0.00;0.00;0.62;0.00;0.00;0.62;3.57;3.20;;;22.90;38.20;;;;;;2272772;61;20404;-57
2023/09/27 02:56:05;0.00;0.00;0.62;0.00;0.00;0.62;3.97;3.20;;;22.90;38.30;;;;;;2277118;60;20385;-57
2023/09/27 02:58:49;0.00;0.00;0.62;0.00;0.00;0.62;4.10;3.40;;;22.90;38.30;;;;;;2276621;60;20927;-59
2023/09/27 03:01:34;0.00;0.00;0.62;0.00;0.00;0.62;3.30;3.00;;;22.90;38.30;;;;;;2277337;60;20381;-60
2023/09/27 03:04:21;0.00;0.00;0.62;0.00;0.00;0.62;3.10;2.80;;;23.00;38.40;;;;;;2276939;60;20402;-61
2023/09/27 03:07:08;0.00;0.00;0.62;0.00;0.00;0.62;3.73;2.70;;;23.00;38.20;;;;;;2277079;60;20387;-59
2023/09/27 03:09:53;0.00;0.00;0.62;0.00;0.00;0.62;3.50;3.17;;;23.00;38.10;;;;;;2277035;60;20446;-62
2023/09/27 03:12:39;0.00;0.00;0.62;0.00;0.00;0.62;4.00;2.70;;;23.00;38.10;;;;;;2277224;60;20361;-59
2023/09/27 03:15:24;0.00;0.00;0.62;0.00;0.00;0.62;3.17;2.83;;;23.00;38.10;;;;;;2277180;60;20414;-60
2023/09/27 03:18:08;0.00;0.00;0.62;0.00;0.00;0.62;3.47;3.13;;;23.00;38.10;;;;;;2277183;60;20408;-62
2023/09/27 03:20:55;0.00;0.00;0.62;0.00;0.00;0.62;3.60;3.30;;;23.10;38.20;;;;;;2277059;60;20380;-61
2023/09/27 03:23:40;0.00;0.00;0.62;0.00;0.00;0.62;3.90;3.13;;;23.00;38.10;;;;;;2276608;60;20365;-61
2023/09/27 03:26:26;0.00;0.00;0.62;0.00;0.00;0.62;4.07;3.53;;;23.00;38.10;;;;;;2276145;60;21050;-61
2023/09/27 03:29:10;0.00;0.00;0.62;0.00;0.00;0.62;5.27;3.47;;;23.00;38.10;;;;;;2276217;60;20459;-56
2023/09/27 03:31:55;0.00;0.00;0.62;0.00;0.00;0.62;7.30;3.63;;;23.00;38.10;;;;;;2276091;60;20396;-61
2023/09/27 03:34:40;0.00;0.00;0.62;0.00;0.00;0.62;3.60;3.30;;;23.00;38.10;;;;;;2276477;60;20419;-63
2023/09/27 03:37:27;0.00;0.00;0.62;0.00;0.00;0.62;3.43;3.10;;;23.00;38.10;;;;;;2275998;60;20385;-61
2023/09/27 03:40:13;0.00;0.00;0.62;0.00;0.00;0.62;5.40;3.33;;;23.00;38.10;;;;;;2276604;60;20823;-60
2023/09/27 03:42:57;0.00;0.00;0.62;0.00;0.00;0.62;4.70;3.10;;;23.00;38.10;;;;;;2276373;60;21018;-60
2023/09/27 03:45:42;0.00;0.00;0.62;0.00;0.00;0.62;3.57;3.27;;;23.10;38.20;;;;;;2275529;60;20438;-66
2023/09/27 03:48:26;0.00;0.00;0.62;0.00;0.00;0.62;5.20;3.00;;;23.10;38.20;;;;;;2275646;60;20400;-60
2023/09/27 03:51:11;0.00;0.00;0.62;0.00;0.00;0.62;5.03;3.60;;;23.10;38.20;;;;;;2276427;60;20386;-59
2023/09/27 03:53:57;0.00;0.00;0.62;0.00;0.00;0.62;4.07;3.70;;;23.10;38.00;;;;;;2276432;60;20446;-62
2023/09/27 03:56:42;0.00;0.00;0.62;0.00;0.00;0.62;4.30;3.50;;;23.10;38.00;;;;;;2272357;61;20804;-62
2023/09/27 03:59:27;0.00;0.00;0.62;0.00;0.00;0.62;4.33;3.70;;;23.10;37.70;;;;;;2271389;61;20945;-59
2023/09/27 04:02:11;0.00;0.00;0.62;0.00;0.00;0.62;3.87;3.50;;;23.10;37.80;;;;;;2272510;61;20362;-60
2023/09/27 04:04:56;0.00;0.00;0.62;0.00;0.00;0.62;4.60;3.50;;;23.10;37.80;;;;;;2272426;61;20407;-62
2023/09/27 04:07:41;0.00;0.00;0.62;0.00;0.00;0.62;4.87;3.47;;;23.10;37.90;;;;;;2272421;61;20398;-60
2023/09/27 04:10:28;0.00;0.00;0.62;0.00;0.00;0.62;4.13;3.30;;;23.10;38.00;;;;;;2271813;61;20844;-59
2023/09/27 04:13:13;0.00;0.00;0.62;0.00;0.00;0.62;5.87;3.80;;;23.10;38.00;;;;;;2272499;61;20367;-61
2023/09/27 04:15:58;0.00;0.00;0.62;0.00;0.00;0.62;4.30;3.90;;;23.10;38.00;;;;;;2272319;61;20382;-62
2023/09/27 04:18:42;0.00;0.00;0.62;0.00;0.00;0.62;3.87;3.47;;;23.10;37.90;;;;;;2272109;61;20358;-63
2023/09/27 04:21:27;0.00;0.00;0.62;0.00;0.00;0.62;4.77;3.47;;;23.20;37.80;;;;;;2272286;61;20411;-59
2023/09/27 04:24:12;0.00;0.00;0.62;0.00;0.00;0.62;3.50;3.20;;;23.20;37.60;;;;;;2272464;61;20894;-60
2023/09/27 04:26:58;0.00;0.00;0.62;0.00;0.00;0.62;4.40;3.63;;;23.20;37.50;;;;;;2272146;61;20360;-61
2023/09/27 04:29:43;0.00;0.00;0.62;0.00;0.00;0.62;4.67;4.23;;;23.20;37.50;;;;;;2271398;61;20394;-61
2023/09/27 04:32:27;0.00;0.00;0.62;0.00;0.00;0.62;6.70;3.50;;;23.30;37.40;;;;;;2272325;61;20398;-60
2023/09/27 04:35:13;0.00;0.00;0.62;0.00;0.00;0.62;6.50;3.23;;;23.30;37.20;;;;;;2272431;61;20370;-58
2023/09/27 04:37:57;0.00;0.00;0.62;0.00;0.00;0.62;5.53;3.80;;;23.30;37.20;;;;;;2271744;61;20402;-62
2023/09/27 04:40:42;0.00;0.00;0.62;0.00;0.00;0.62;6.03;3.90;;;23.30;37.20;;;;;;2272431;61;20463;-59
2023/09/27 04:43:28;0.00;0.00;0.62;0.00;0.00;0.62;4.30;3.13;;;23.30;37.30;;;;;;2272261;61;20837;-58
2023/09/27 04:46:14;0.00;0.00;0.62;0.00;0.00;0.62;6.10;3.90;;;23.30;37.30;;;;;;2271904;61;20362;-60
2023/09/27 04:48:58;0.00;0.00;0.62;0.00;0.00;0.62;4.30;3.90;;;23.30;37.30;;;;;;2271993;61;20358;-63
2023/09/27 04:51:43;0.00;0.00;0.62;0.00;0.00;0.62;6.40;3.70;;;23.30;37.10;;;;;;2272290;61;20454;-61
2023/09/27 04:54:28;0.00;0.00;0.62;0.00;0.00;0.62;4.70;4.30;;;23.40;37.00;;;;;;2273121;60;20853;-60
2023/09/27 04:57:12;0.00;0.00;0.62;0.00;0.00;0.62;5.57;3.97;;;23.40;36.90;;;;;;2276380;60;20390;-63
2023/09/27 04:59:58;0.00;0.00;0.62;0.00;0.00;0.62;5.47;4.10;;;23.40;36.80;;;;;;2276007;60;20424;-60
2023/09/27 05:02:43;0.00;0.00;0.62;0.00;0.00;0.62;4.67;4.17;;;23.40;36.80;;;;;;2276477;60;20763;-60
2023/09/27 05:05:27;0.00;0.00;0.62;0.00;0.00;0.62;5.70;4.53;;;23.40;36.70;;;;;;2276461;60;20450;-63
2023/09/27 05:08:12;0.00;0.00;0.62;0.00;0.00;0.62;5.60;4.20;;;23.30;36.60;;;;;;2275684;60;20365;-62
2023/09/27 05:10:57;0.00;0.00;0.62;0.00;0.00;0.62;8.93;3.80;;;23.30;36.60;;;;;;2276002;60;20381;-62
2023/09/27 05:13:42;0.00;0.00;0.62;0.00;0.00;0.62;5.27;4.07;;;23.30;36.60;;;;;;2276052;60;20410;-58
2023/09/27 05:16:29;0.00;0.00;0.62;0.00;0.00;0.62;5.53;3.90;;;23.30;36.70;;;;;;2276353;60;20384;-63
2023/09/27 05:19:14;0.00;0.00;0.62;0.00;0.00;0.62;5.37;4.40;;;23.20;36.60;;;;;;2276068;60;20368;-61
2023/09/27 05:21:59;0.00;0.00;0.62;0.00;0.00;0.62;5.10;4.30;;;23.20;36.60;;;;;;2276812;60;20377;-60
2023/09/27 05:24:44;0.00;0.00;0.62;0.00;0.00;0.62;5.27;4.27;;;23.20;36.70;;;;;;2276879;60;20365;-60
2023/09/27 05:27:28;0.00;0.00;0.62;0.00;0.00;0.62;3.93;3.60;;;23.10;36.70;;;;;;2277000;60;20719;-62
2023/09/27 05:30:15;0.00;0.00;0.62;0.00;0.00;0.62;7.50;4.50;;;23.10;36.90;;;;;;2276857;60;20432;-63
2023/09/27 05:33:04;0.00;0.00;0.62;0.00;0.00;0.62;5.03;3.83;;;23.10;37.00;;;;;;2277182;60;20590;-61
2023/09/27 05:35:50;0.00;0.00;0.62;0.00;0.00;0.62;4.37;3.83;;;23.10;37.00;;;;;;2276989;60;20594;-60
2023/09/27 05:38:35;0.00;0.00;0.62;0.00;0.00;0.62;7.17;4.53;;;23.00;37.00;;;;;;2276600;60;20768;-63
2023/09/27 05:41:19;0.00;0.00;0.62;0.00;0.00;0.62;5.13;4.00;;;23.00;37.20;;;;;;2277279;60;20791;-63
2023/09/27 05:44:04;0.00;0.00;0.62;0.00;0.00;0.62;7.00;4.93;;;23.00;37.20;;;;;;2276454;60;20361;-63
2023/09/27 05:46:49;0.00;0.00;0.62;0.00;0.00;0.62;9.30;5.13;;;23.00;37.30;;;;;;2276971;60;20419;-61
2023/09/27 05:49:35;0.00;0.00;0.62;0.00;0.00;0.62;7.27;5.33;;;23.00;37.30;;;;;;2276095;60;20442;-62
2023/09/27 05:52:19;0.00;0.00;0.62;0.00;0.00;0.62;4.60;3.90;;;23.00;37.30;;;;;;2276956;60;20369;-57
2023/09/27 05:55:06;0.00;0.00;0.62;0.00;0.00;0.62;5.30;4.20;;;23.00;37.20;;;;;;2274804;60;20377;-62
2023/09/27 05:57:51;0.00;0.00;0.62;0.00;0.00;0.62;7.73;4.43;;;22.90;37.20;;;;;;2272419;61;20783;-63
2023/09/27 06:00:40;0.00;0.00;0.62;0.00;0.00;0.62;9.23;4.47;;;22.90;37.30;;;;;;2272878;61;20427;-61
2023/09/27 06:03:25;0.00;0.00;0.62;0.00;0.00;0.62;7.60;4.60;;;22.90;37.30;;;;;;2272874;61;20423;-60
2023/09/27 06:06:12;0.00;0.00;0.62;0.00;0.00;0.62;12.87;5.87;;;22.90;37.40;;;;;;2272692;61;20362;-62
2023/09/27 06:08:58;0.00;0.00;0.62;0.00;0.00;0.62;7.53;4.27;;;22.90;37.40;;;;;;2272702;61;20362;-60
2023/09/27 06:11:43;0.00;0.00;0.62;0.00;0.00;0.62;14.33;6.07;;;22.90;37.40;;;;;;2272738;61;20362;-60
2023/09/27 06:14:27;0.00;0.00;0.62;0.00;0.00;0.62;6.17;4.70;;;22.80;37.40;;;;;;2272662;61;20354;-61
2023/09/27 06:17:15;0.00;0.00;0.62;0.00;0.00;0.62;12.63;6.00;;;22.80;37.50;;;;;;2272889;61;20838;-60
2023/09/27 06:20:05;0.00;0.00;0.62;0.00;0.00;0.62;9.50;4.77;;;22.80;37.70;;;;;;2272516;61;20382;-63
2023/09/27 06:22:54;0.00;0.00;0.62;0.00;0.00;0.62;11.73;5.10;;;22.80;37.90;;;;;;2272785;61;20354;-59
2023/09/27 06:25:43;0.00;0.00;0.62;0.00;0.00;0.62;7.17;4.53;;;22.80;37.90;;;;;;2272844;61;20379;-62
2023/09/27 06:28:28;0.00;0.00;0.62;0.00;0.00;0.62;6.80;4.60;;;22.70;37.80;;;;;;2272198;61;20944;-58
2023/09/27 06:31:13;0.00;0.00;0.62;0.00;0.00;0.62;4.87;4.33;;;22.70;37.80;;;;;;2272825;61;20389;-63
2023/09/27 06:33:58;0.00;0.00;0.62;0.00;0.00;0.62;5.03;3.97;;;22.70;37.80;;;;;;2272624;61;20881;-64
2023/09/27 06:36:43;0.00;0.00;0.62;0.00;0.00;0.62;4.97;4.30;;;22.70;37.80;;;;;;2272091;61;20382;-60
2023/09/27 06:39:29;0.00;0.00;0.62;0.00;0.00;0.62;5.20;4.40;;;22.70;37.80;;;;;;2271729;61;20377;-60
2023/09/27 06:42:15;0.00;0.00;0.62;0.00;0.00;0.62;5.70;4.40;;;22.70;37.90;;;;;;2272245;61;20415;-62
2023/09/27 06:44:59;0.00;0.00;0.62;0.00;0.00;0.62;4.60;4.20;;;22.70;38.00;;;;;;2272738;61;20366;-59
2023/09/27 06:47:45;0.00;0.00;0.62;0.00;0.00;0.62;6.50;4.43;;;22.70;38.00;;;;;;2272956;61;20362;-62
2023/09/27 06:50:30;0.00;0.00;0.62;0.00;0.00;0.62;5.43;4.10;;;22.80;38.10;;;;;;2272334;61;20385;-62
2023/09/27 06:53:16;0.00;0.00;0.62;0.00;0.00;0.62;5.90;5.30;;;22.70;38.10;;;;;;2272722;61;20944;-61
2023/09/27 06:56:03;0.00;0.00;0.62;0.00;0.00;0.62;5.37;4.37;;;22.80;38.40;;;;;;2276195;60;20388;-61
2023/09/27 06:58:54;0.00;0.00;0.62;0.00;0.00;0.62;4.67;4.13;;;22.70;38.40;;;;;;2276403;60;20369;-59
2023/09/27 07:01:41;0.00;0.00;0.62;0.00;0.00;0.62;5.10;4.60;;;22.80;38.50;;;;;;2276662;60;20417;-60
2023/09/27 07:04:25;0.00;0.00;0.62;0.00;0.00;0.62;5.67;4.70;;;22.80;38.60;;;;;;2276566;60;20369;-61
2023/09/27 07:07:11;0.00;0.00;0.62;0.00;0.00;0.62;7.10;4.70;;;22.80;38.70;;;;;;2276612;60;20393;-56
2023/09/27 07:09:55;0.00;0.00;0.62;0.00;0.00;0.62;4.10;3.70;;;22.80;38.80;;;;;;2276026;60;20458;-58
2023/09/27 07:12:42;0.00;0.00;0.62;0.00;0.00;0.62;6.80;4.37;;;22.70;38.80;;;;;;2276108;60;20357;-61
2023/09/27 07:15:27;0.00;0.00;0.62;0.00;0.00;0.62;6.43;4.30;;;22.70;38.90;;;;;;2276560;60;20357;-60
2023/09/27 07:18:12;0.00;0.00;0.62;0.00;0.00;0.62;7.47;4.37;;;22.70;39.00;;;;;;2276127;60;20881;-61
2023/09/27 07:20:57;0.00;0.00;0.62;0.00;0.00;0.62;7.73;3.93;;;22.80;39.10;;;;;;2276534;60;20407;-57
2023/09/27 07:23:42;0.00;0.00;0.62;0.00;0.00;0.62;6.20;4.30;;;22.70;39.20;;;;;;2276722;60;20368;-59
2023/09/27 07:26:27;0.00;0.00;0.62;0.00;0.00;0.62;6.87;4.17;;;22.70;39.30;;;;;;2276413;60;20353;-61
2023/09/27 07:29:13;0.00;0.00;0.62;0.00;0.00;0.62;6.33;4.70;;;22.70;39.40;;;;;;2276349;60;20404;-66
2023/09/27 07:31:57;0.00;0.00;0.62;0.00;0.00;0.62;5.87;4.40;;;22.70;39.50;;;;;;2276653;60;20415;-62
2023/09/27 07:34:42;0.00;0.00;0.62;0.00;0.00;0.62;7.37;4.63;;;22.70;39.60;;;;;;2275865;60;20353;-62
2023/09/27 07:37:27;0.00;0.00;0.62;0.00;0.00;0.62;6.33;4.80;;;22.70;39.70;;;;;;2272490;61;20879;-60
2023/09/27 07:40:14;0.00;0.00;0.62;0.00;0.00;0.62;3.73;3.30;;;22.70;39.80;;;;;;2272233;61;20435;-61
2023/09/27 07:42:58;0.00;0.00;0.62;0.00;0.00;0.62;5.27;4.77;;;22.80;40.00;;;;;;2272229;61;20759;-60
2023/09/27 07:45:46;0.00;0.00;0.62;0.00;0.00;0.62;6.40;4.60;;;22.80;40.10;;;;;;2272477;61;20378;-68
2023/09/27 07:48:32;0.00;0.00;0.62;0.00;0.00;0.62;5.37;4.53;;;22.80;40.20;;;;;;2271963;61;20378;-59
2023/09/27 07:51:18;0.00;0.00;0.62;0.00;0.00;0.62;7.33;3.80;;;22.80;40.40;;;;;;2272511;61;20419;-63
2023/09/27 07:54:08;0.00;0.00;0.62;0.00;0.00;0.62;6.07;3.93;;;22.80;40.50;;;;;;2272765;60;20448;-59
2023/09/27 07:56:54;0.00;0.00;0.62;0.00;0.00;0.62;4.53;3.83;;;22.80;40.50;;;;;;2276429;60;20856;-64
2023/09/27 07:59:39;0.00;0.00;0.62;0.00;0.00;0.62;4.30;3.80;;;22.80;40.60;;;;;;2276317;60;20528;-61
2023/09/27 08:02:26;0.00;0.00;0.62;0.00;0.00;0.62;7.63;3.70;;;22.90;40.70;;;;;;2276590;60;20435;-59
2023/09/27 08:05:11;0.00;0.00;0.62;0.00;0.00;0.62;5.47;3.77;;;22.90;40.80;;;;;;2276512;60;20373;-58
2023/09/27 08:07:56;0.00;0.00;0.62;0.00;0.00;0.62;6.00;4.10;;;22.90;41.20;;;;;;2276361;60;20399;-57
2023/09/27 08:10:43;0.00;0.00;0.62;0.00;0.00;0.62;4.80;3.97;;;22.90;40.90;;;;;;2276410;60;20381;-63
2023/09/27 08:13:30;0.00;0.00;0.62;0.00;0.00;0.62;5.70;3.67;;;23.00;41.10;;;;;;2276612;60;20649;-59
2023/09/27 08:16:16;0.00;0.00;0.62;0.00;0.00;0.62;4.80;3.60;;;23.00;41.10;;;;;;2276395;60;20645;-60
2023/09/27 08:19:03;0.00;0.00;0.62;0.00;0.00;0.62;4.10;3.70;;;23.00;41.10;;;;;;2276022;60;20372;-62
2023/09/27 08:21:48;0.00;0.00;0.62;0.00;0.00;0.62;5.77;4.30;;;23.10;41.20;;;;;;2276602;60;20361;-63
2023/09/27 08:24:32;0.00;0.00;0.62;0.00;0.00;0.62;4.97;4.03;;;23.10;41.20;;;;;;2276559;60;20404;-62
2023/09/27 08:27:18;0.00;0.00;0.62;0.00;0.00;0.62;3.60;2.97;;;23.10;41.20;;;;;;2276611;60;20364;-63
2023/09/27 08:30:05;0.00;0.00;0.62;0.00;0.00;0.62;4.50;3.60;;;23.20;41.20;;;;;;2276174;60;20427;-65
2023/09/27 08:32:51;0.00;0.00;0.62;0.00;0.00;0.62;4.90;3.70;;;23.20;41.30;;;;;;2276332;60;20897;-60
2023/09/27 08:35:37;0.00;0.00;0.62;0.00;0.00;0.62;4.53;4.10;;;23.30;41.40;;;;;;2276459;60;20888;-60
2023/09/27 08:38:23;0.00;0.00;0.62;0.00;0.00;0.62;3.40;3.07;;;23.30;41.40;;;;;;2275631;60;20785;-61
2023/09/27 08:41:07;0.00;0.00;0.62;0.00;0.00;0.62;3.90;3.27;;;23.40;41.30;;;;;;2276333;60;20403;-61
2023/09/27 08:43:54;0.00;0.00;0.62;0.00;0.00;0.62;4.97;3.23;;;23.40;41.10;;;;;;2276600;60;20418;-60
2023/09/27 08:46:40;0.00;0.00;0.62;0.00;0.00;0.62;3.83;3.43;;;23.50;41.10;;;;;;2276515;60;20531;-64
2023/09/27 08:49:25;0.00;0.00;0.62;0.00;0.00;0.62;3.33;3.03;;;23.50;41.00;;;;;;2276015;60;20913;-60
2023/09/27 08:52:11;0.00;0.00;0.62;0.00;0.00;0.62;4.20;2.87;;;23.60;40.90;;;;;;2276369;60;20434;-60
2023/09/27 08:54:56;0.00;0.00;0.62;0.00;0.00;0.62;2.97;2.67;;;23.60;40.80;;;;;;2274643;60;20374;-59
2023/09/27 08:57:46;0.00;0.00;0.62;0.00;0.00;0.62;4.10;3.00;;;23.70;40.80;;;;;;2273018;60;20381;-61
2023/09/27 09:00:32;0.00;0.00;0.62;0.00;0.00;0.62;4.03;2.90;;;23.70;40.60;;;;;;2273025;60;20386;-59
2023/09/27 09:03:18;0.00;0.00;0.62;0.00;0.00;0.62;3.80;3.50;;;23.80;40.50;;;;;;2272556;60;20362;-60
2023/09/27 09:06:07;0.00;0.00;0.62;0.00;0.00;0.62;3.23;2.93;;;23.80;40.40;;;;;;2273218;60;20374;-62
2023/09/27 09:08:53;0.00;0.00;0.62;0.00;0.00;0.62;4.73;3.27;;;23.80;40.30;;;;;;2272223;60;20369;-60
2023/09/27 09:11:47;0.00;0.00;0.62;0.00;0.00;0.62;4.07;3.20;;;23.90;40.40;;;;;;2272949;60;20390;-58
2023/09/27 09:14:49;0.00;0.00;0.62;0.00;0.00;0.62;4.20;3.83;;;23.90;40.40;;;;;;2273016;60;20401;-60
2023/09/27 09:17:34;0.00;0.00;0.62;0.00;0.00;0.62;3.40;3.10;;;24.00;40.40;;;;;;2272753;60;20393;-58
2023/09/27 09:20:27;0.00;0.00;0.62;0.00;0.00;0.62;3.47;2.97;;;24.00;40.30;;;;;;2273216;60;20471;-59
2023/09/27 09:23:12;0.00;0.00;0.62;0.00;0.00;0.62;3.70;3.37;;;24.00;40.20;;;;;;2273119;61;20358;-63
2023/09/27 09:25:59;0.00;0.00;0.62;0.00;0.00;0.62;4.37;3.30;;;24.10;40.30;;;;;;2272823;60;20454;-63
2023/09/27 09:28:56;0.00;0.00;0.62;0.00;0.00;0.62;4.77;3.40;;;24.10;40.20;;;;;;2272666;60;20370;-58
2023/09/27 09:31:50;0.00;0.00;0.62;0.00;0.00;0.62;4.87;3.77;;;24.20;40.20;;;;;;2272835;60;20378;-59
2023/09/27 09:34:41;0.00;0.00;0.62;0.00;0.00;0.62;4.23;3.80;;;24.20;40.10;;;;;;2273169;60;20399;-60
2023/09/27 09:37:30;0.00;0.00;0.62;0.00;0.00;0.62;3.40;3.10;;;24.20;40.00;;;;;;2273131;60;20401;-61
2023/09/27 09:40:15;0.00;0.00;0.62;0.00;0.00;0.62;4.20;3.83;;;24.30;40.00;;;;;;2272796;60;20386;-59
2023/09/27 09:43:03;0.00;0.00;0.62;0.00;0.00;0.62;5.03;3.20;;;24.30;40.00;;;;;;2273017;60;20844;-60
2023/09/27 09:45:47;0.00;0.00;0.62;0.00;0.00;0.62;5.30;3.50;;;24.40;39.90;;;;;;2273054;60;20951;-62
2023/09/27 09:48:34;0.00;0.00;0.62;0.00;0.00;0.62;3.60;3.00;;;24.40;39.80;;;;;;2272460;60;20362;-58
2023/09/27 09:51:22;0.00;0.00;0.62;0.00;0.00;0.62;4.27;3.50;;;24.40;39.60;;;;;;2273266;60;20386;-60
2023/09/27 09:54:10;0.00;0.00;0.62;0.00;0.00;0.62;4.10;3.10;;;24.50;39.50;;;;;;2273073;60;20459;-62
2023/09/27 09:56:59;0.00;0.00;0.62;0.00;0.00;0.62;3.10;2.80;;;24.50;39.40;;;;;;2272838;61;20385;-61
2023/09/27 10:00:00;0.00;0.00;0.62;0.00;0.00;0.62;3.03;2.70;;;24.50;39.50;;;;;;2272593;61;20930;-58
2023/09/27 10:02:49;0.00;0.00;0.62;0.00;0.00;0.62;4.60;3.03;;;24.60;39.50;;;;;;2272738;61;20777;-59
2023/09/27 10:05:38;0.00;0.00;0.62;0.00;0.00;0.62;3.07;2.77;;;24.60;39.50;;;;;;2272778;61;20354;-60
2023/09/27 10:08:25;0.00;0.00;0.62;0.00;0.00;0.62;3.30;2.80;;;24.60;39.50;;;;;;2272061;61;20366;-61
2023/09/27 10:11:10;0.00;0.00;0.62;0.00;0.00;0.62;3.40;2.73;;;24.70;39.60;;;;;;2268150;61;20386;-58
2023/09/27 10:13:56;0.00;0.00;0.62;0.00;0.00;0.62;3.47;3.10;;;24.70;39.60;;;;;;2272954;61;20378;-62
2023/09/27 10:16:43;0.00;0.00;0.62;0.00;0.00;0.62;3.33;3.03;;;24.80;39.60;;;;;;2272384;61;20385;-62
2023/09/27 10:19:28;0.00;0.00;0.62;0.00;0.00;0.62;3.97;3.23;;;24.80;39.70;;;;;;2272393;61;20431;-63
2023/09/27 10:22:24;0.00;0.00;0.62;0.00;0.00;0.62;3.40;3.10;;;24.80;39.40;;;;;;2272877;61;20451;-62
2023/09/27 10:25:34;0.00;0.00;0.62;0.00;0.00;0.62;4.93;3.50;;;24.90;39.40;;;;;;2272808;61;20355;-62
2023/09/27 10:28:19;0.00;0.00;0.62;0.00;0.00;0.62;3.43;2.87;;;24.90;39.90;;;;;;2272502;61;20354;-63
2023/09/27 10:31:06;0.00;0.00;0.62;0.00;0.00;0.62;4.07;3.40;;;25.00;39.20;;;;;;2272456;61;20390;-61
2023/09/27 10:33:51;0.00;0.00;0.62;0.00;0.00;0.62;4.33;3.70;;;25.00;39.10;;;;;;2272499;61;20962;-60
2023/09/27 10:36:45;0.00;0.00;0.62;0.00;0.00;0.62;3.60;3.13;;;25.00;39.10;;;;;;2272741;61;20413;-60
2023/09/27 10:39:29;0.00;0.00;0.62;0.00;0.00;0.62;3.80;2.80;;;25.10;39.00;;;;;;2272219;61;20806;-59
2023/09/27 10:42:38;0.00;0.00;0.62;0.00;0.00;0.62;4.03;3.30;;;25.10;38.90;;;;;;2272950;61;20373;-64
2023/09/27 10:45:23;0.00;0.00;0.62;0.00;0.00;0.62;3.30;3.00;;;25.10;38.80;;;;;;2272917;61;20366;-62
2023/09/27 10:48:15;0.00;0.00;0.62;0.00;0.00;0.62;3.67;3.20;;;25.10;38.60;;;;;;2272286;61;20468;-63
2023/09/27 10:51:01;0.00;0.00;0.62;0.00;0.00;0.62;3.40;2.80;;;25.20;38.50;;;;;;2272659;61;20857;-64
2023/09/27 10:53:45;0.00;0.00;0.62;0.00;0.00;0.62;3.20;2.90;;;25.20;38.30;;;;;;2272689;61;20384;-63
2023/09/27 10:56:30;0.00;0.00;0.62;0.00;0.00;0.62;4.87;3.27;;;25.30;38.30;;;;;;2578642;45;20429;-63